No particular awareness of the weather is required.    There are no Weather-warnings


Meteo18 Weather Cam more information Meteo18 Weather Cam


Thunder radar more information blitzortung!


Rain radar more information rain snow radar


Visit our other weather sites:

Template documentation
and downloads

And another site



Weather Underground History page Text

Daily Summary for July 14, 2017 Units:  English    Metric   Both
« Previous Day
Next Day »
Daily Weekly Monthly Yearly Custom
  High: Low: Average:
Temperature: 75.6 °F 57.9 °F 67.3 °F
Dew Point: 60.3 °F 49.6 °F 54.7 °F
Humidity: 94 % 45 % 66 %
Wind Speed: 12 mph 0 mph 3.2 mph
Wind Gust: 18 mph - -
Wind:- - West
Pressure: 30.2 in 30.1 in -
Precipitation: 0 in    
Historical Graphs
 
 
Tabular Data for July 14, 2017
Time Temperature Dew Point Pressure Wind Wind Speed Wind Gust Humidity Rainfall Rate (Hourly)
00:02 68.4 °F 60.1 °F 30.1 in Calm   5 mph 75 % 0 in
00:07 68.2 °F 59.9 °F 30.1 in West 1 mph 5 mph 75 % 0 in
00:12 68.2 °F 60.3 °F 30.1 in WSW 2 mph 4 mph 76 % 0 in
00:17 67.8 °F 59.9 °F 30.1 in WSW 2 mph 4 mph 76 % 0 in
00:22 67.8 °F 60.3 °F 30.1 in Calm   4 mph 77 % 0 in
00:32 67.6 °F 59.7 °F 30.1 in West 4 mph 4 mph 76 % 0 in
00:37 67.8 °F 59.5 °F 30.1 in WSW 6 mph 6 mph 75 % 0 in
00:42 67.8 °F 59.5 °F 30.1 in WSW 2 mph 6 mph 75 % 0 in
00:52 67.8 °F 59.5 °F 30.1 in West 6 mph 7 mph 75 % 0 in
00:57 67.6 °F 59.4 °F 30.1 in SW 2 mph 8 mph 75 % 0 in
01:02 67.6 °F 59.4 °F 30.1 in WNW 1 mph 8 mph 75 % 0 in
01:12 67.5 °F 59.2 °F 30.1 in West 7 mph 8 mph 75 % 0 in
01:17 67.5 °F 59.2 °F 30.1 in SW 4 mph 8 mph 75 % 0 in
01:22 67.3 °F 59 °F 30.1 in WSW 5 mph 8 mph 75 % 0 in
01:32 66.7 °F 59 °F 30.1 in WSW 4 mph 8 mph 76 % 0 in
01:37 66.4 °F 59 °F 30.1 in WSW 5 mph 8 mph 77 % 0 in
01:42 66.4 °F 59 °F 30.1 in WNW 6 mph 7 mph 77 % 0 in
01:52 65.8 °F 58.8 °F 30.1 in WSW 6 mph 8 mph 78 % 0 in
02:02 65.5 °F 58.8 °F 30.1 in West 4 mph 7 mph 79 % 0 in
02:12 64.9 °F 58.6 °F 30.1 in SSW 2 mph 8 mph 80 % 0 in
02:22 64.6 °F 58.3 °F 30.1 in Calm   8 mph 80 % 0 in
02:32 64 °F 58.1 °F 30.1 in Calm   6 mph 81 % 0 in
02:37 63.7 °F 58.1 °F 30.1 in SSW 1 mph 5 mph 82 % 0 in
02:42 63.1 °F 57.9 °F 30.1 in Calm   3 mph 83 % 0 in
02:47 62.4 °F 57.2 °F 30.1 in SE 2 mph 3 mph 83 % 0 in
02:52 61.9 °F 57.4 °F 30.1 in SSE 1 mph 3 mph 85 % 0 in
02:57 61.5 °F 57 °F 30.1 in East 2 mph 3 mph 85 % 0 in
03:02 61.3 °F 57.2 °F 30.1 in Calm   5 mph 86 % 0 in
03:12 61.2 °F 57.2 °F 30.1 in Calm   5 mph 87 % 0 in
03:17 61 °F 57 °F 30.1 in Calm   3 mph 87 % 0 in
03:22 61 °F 57 °F 30.1 in SE 1 mph 3 mph 87 % 0 in
03:32 60.6 °F 57 °F 30.1 in Calm   2 mph 88 % 0 in
03:37 60.6 °F 57 °F 30.1 in Calm   2 mph 88 % 0 in
03:42 60.6 °F 57.4 °F 30.1 in South 2 mph 2 mph 89 % 0 in
03:47 60.4 °F 57.2 °F 30.1 in Calm   3 mph 89 % 0 in
03:52 60.4 °F 57.2 °F 30.1 in Calm   3 mph 89 % 0 in
03:57 60.3 °F 57 °F 30.1 in Calm   3 mph 89 % 0 in
04:02 60.1 °F 56.8 °F 30.1 in Calm   2 mph 89 % 0 in
04:12 59.9 °F 57 °F 30.1 in Calm   1 mph 90 % 0 in
04:22 59.9 °F 57.2 °F 30.1 in SW 1 mph 1 mph 91 % 0 in
04:32 59.5 °F 56.7 °F 30.1 in Calm   1 mph 90 % 0 in
04:42 59.2 °F 56.5 °F 30.1 in Calm   1 mph 91 % 0 in
04:47 59.2 °F 56.8 °F 30.1 in Calm     92 % 0 in
04:52 59.2 °F 56.8 °F 30.1 in Calm     92 % 0 in
05:02 59.4 °F 56.7 °F 30.1 in Calm     91 % 0 in
05:12 59.2 °F 56.8 °F 30.1 in SSW 1 mph   92 % 0 in
05:17 58.8 °F 56.1 °F 30.1 in SW 1 mph 3 mph 91 % 0 in
05:22 58.5 °F 56.1 °F 30.1 in Calm   4 mph 92 % 0 in
05:27 58.6 °F 56.3 °F 30.1 in Calm   4 mph 92 % 0 in
05:32 58.5 °F 56.1 °F 30.1 in West 1 mph 4 mph 92 % 0 in
05:42 58.6 °F 56.7 °F 30.1 in Calm   3 mph 93 % 0 in
05:52 58.8 °F 56.5 °F 30.2 in WNW 1 mph 3 mph 92 % 0 in
05:57 58.8 °F 56.5 °F 30.2 in Calm   3 mph 92 % 0 in
06:02 58.8 °F 56.5 °F 30.2 in Calm   3 mph 92 % 0 in
06:12 58.5 °F 56.1 °F 30.2 in Calm   3 mph 92 % 0 in
06:17 58.3 °F 55.9 °F 30.2 in Calm   2 mph 92 % 0 in
06:22 57.9 °F 55.6 °F 30.2 in Calm   1 mph 92 % 0 in
06:32 57.9 °F 55.9 °F 30.2 in Calm   2 mph 93 % 0 in
06:37 58.3 °F 56.5 °F 30.2 in WNW 2 mph 2 mph 94 % 0 in
06:42 58.5 °F 56.5 °F 30.2 in Calm   2 mph 93 % 0 in
06:47 58.8 °F 56.8 °F 30.2 in Calm   2 mph 93 % 0 in
06:52 59 °F 57 °F 30.2 in Calm   2 mph 93 % 0 in
06:57 59 °F 56.7 °F 30.2 in Calm   2 mph 92 % 0 in
07:02 58.6 °F 56.3 °F 30.2 in WNW 1 mph 2 mph 92 % 0 in
07:07 59 °F 57 °F 30.2 in Calm   2 mph 93 % 0 in
07:12 59.4 °F 57 °F 30.2 in Calm   4 mph 92 % 0 in
07:17 59.7 °F 57.4 °F 30.2 in Calm   4 mph 92 % 0 in
07:22 60.1 °F 57.4 °F 30.2 in Calm   5 mph 91 % 0 in
07:27 60.1 °F 57.4 °F 30.2 in NW 4 mph 5 mph 91 % 0 in
07:32 60.1 °F 57.2 °F 30.2 in WSW 2 mph 5 mph 90 % 0 in
07:37 60.3 °F 57.4 °F 30.2 in WNW 2 mph 5 mph 90 % 0 in
07:42 60.4 °F 57.6 °F 30.2 in West 3 mph 5 mph 90 % 0 in
07:47 60.6 °F 57.4 °F 30.2 in NW 2 mph 5 mph 89 % 0 in
07:52 61 °F 57.4 °F 30.2 in NW 2 mph 5 mph 88 % 0 in
07:57 61.2 °F 57.2 °F 30.2 in WNW 4 mph 5 mph 87 % 0 in
08:02 61.5 °F 57.6 °F 30.2 in NW 4 mph 5 mph 87 % 0 in
08:07 61.5 °F 57.4 °F 30.2 in NW 5 mph 9 mph 86 % 0 in
08:12 61.7 °F 56.8 °F 30.2 in WNW 3 mph 9 mph 84 % 0 in
08:17 61.7 °F 56.8 °F 30.2 in NW 4 mph 9 mph 84 % 0 in
08:22 61.9 °F 56.7 °F 30.2 in NW 2 mph 8 mph 83 % 0 in
08:27 62.2 °F 56.7 °F 30.2 in Calm   8 mph 82 % 0 in
08:32 62.2 °F 56.3 °F 30.2 in NNW 1 mph 6 mph 81 % 0 in
08:37 62.4 °F 56.5 °F 30.2 in WNW 3 mph 6 mph 81 % 0 in
08:42 62.4 °F 56.5 °F 30.2 in NW 1 mph 6 mph 81 % 0 in
08:47 62.8 °F 56.8 °F 30.2 in NW 4 mph 9 mph 81 % 0 in
08:52 63.3 °F 56.7 °F 30.2 in Calm   9 mph 79 % 0 in
09:02 64.2 °F 56.5 °F 30.2 in NW 1 mph 6 mph 76 % 0 in
09:12 65.3 °F 56.5 °F 30.2 in WNW 4 mph 7 mph 73 % 0 in
09:17 65.7 °F 56.8 °F 30.2 in WNW 1 mph 10 mph 73 % 0 in
09:22 65.7 °F 56.8 °F 30.2 in NNW 1 mph 10 mph 73 % 0 in
09:27 65.7 °F 55.9 °F 30.2 in WNW 8 mph 8 mph 71 % 0 in
09:32 65.5 °F 55.8 °F 30.2 in West 5 mph 11 mph 71 % 0 in
09:37 65.7 °F 55.2 °F 30.2 in WNW 5 mph 11 mph 69 % 0 in
09:42 65.5 °F 53.4 °F 30.2 in WNW 7 mph 11 mph 65 % 0 in
09:47 65.1 °F 52.7 °F 30.2 in WNW 5 mph 9 mph 64 % 0 in
09:52 65.1 °F 52.7 °F 30.2 in WNW 3 mph 9 mph 64 % 0 in
09:57 65.5 °F 51.3 °F 30.2 in NNW 4 mph 9 mph 60 % 0 in
10:02 66 °F 52.2 °F 30.2 in WSW 2 mph 9 mph 61 % 0 in
10:12 66.6 °F 50.4 °F 30.2 in WNW 2 mph 9 mph 56 % 0 in
10:17 67.3 °F 49.6 °F 30.2 in West 5 mph 10 mph 53 % 0 in
10:22 67.3 °F 49.6 °F 30.2 in WSW 3 mph 10 mph 53 % 0 in
10:32 68.2 °F 50.9 °F 30.2 in West 3 mph 9 mph 54 % 0 in
10:37 68.2 °F 50.4 °F 30.2 in West 3 mph 7 mph 53 % 0 in
10:42 68.4 °F 51.6 °F 30.2 in NNW 3 mph 9 mph 55 % 0 in
10:52 69.4 °F 51.1 °F 30.2 in West 2 mph 9 mph 52 % 0 in
10:57 70 °F 51.6 °F 30.2 in NW 7 mph 9 mph 52 % 0 in
11:02 69.8 °F 50.9 °F 30.2 in North 5 mph 9 mph 51 % 0 in
11:12 69.4 °F 51.1 °F 30.2 in NNE 3 mph 9 mph 52 % 0 in
11:17 69.6 °F 51.3 °F 30.2 in NNW 3 mph 11 mph 52 % 0 in
11:22 69.3 °F 50.9 °F 30.2 in NNW 3 mph 11 mph 52 % 0 in
11:32 69.6 °F 52.2 °F 30.2 in WNW 4 mph 11 mph 54 % 0 in
11:42 69.8 °F 51.4 °F 30.2 in WNW 3 mph 12 mph 52 % 0 in
11:52 69.8 °F 51.4 °F 30.2 in NNW 6 mph 12 mph 52 % 0 in
12:02 69.1 °F 51.8 °F 30.2 in West 5 mph 16 mph 54 % 0 in
12:12 70.2 °F 52.2 °F 30.2 in WSW 4 mph 14 mph 53 % 0 in
12:17 70.5 °F 52.5 °F 30.2 in WNW 6 mph 12 mph 53 % 0 in
12:22 70.5 °F 52.5 °F 30.2 in WNW 10 mph 13 mph 53 % 0 in
12:32 70.3 °F 52.3 °F 30.2 in West 12 mph 18 mph 53 % 0 in
12:42 70.2 °F 52.2 °F 30.2 in WNW 12 mph 15 mph 53 % 0 in
12:47 70 °F 51.6 °F 30.2 in WNW 6 mph 15 mph 52 % 0 in
12:52 70.2 °F 51.3 °F 30.2 in NW 3 mph 16 mph 51 % 0 in
12:57 70.3 °F 52.3 °F 30.2 in NW 4 mph 16 mph 53 % 0 in
13:02 71.2 °F 53.2 °F 30.2 in WSW 7 mph 12 mph 53 % 0 in
13:12 71.2 °F 51.6 °F 30.2 in West 5 mph 16 mph 50 % 0 in
13:17 71.2 °F 52.2 °F 30.2 in Calm   16 mph 51 % 0 in
13:22 71.6 °F 50.9 °F 30.2 in NW 10 mph 14 mph 48 % 0 in
13:27 71.6 °F 50.9 °F 30.2 in West 2 mph 14 mph 48 % 0 in
13:32 71.2 °F 52.7 °F 30.2 in NW 6 mph 14 mph 52 % 0 in
13:37 71.8 °F 52.7 °F 30.2 in NW 2 mph 14 mph 51 % 0 in
13:42 72.5 °F 52.9 °F 30.2 in WNW 7 mph 13 mph 50 % 0 in
13:47 72.3 °F 52.7 °F 30.2 in WNW 2 mph 13 mph 50 % 0 in
13:52 72.5 °F 51.6 °F 30.2 in WNW 10 mph 13 mph 48 % 0 in
13:57 72.1 °F 52 °F 30.2 in SW 1 mph 13 mph 49 % 0 in
14:02 72.9 °F 51.4 °F 30.2 in WSW 4 mph 14 mph 47 % 0 in
14:12 72.7 °F 52.3 °F 30.2 in West 4 mph 15 mph 49 % 0 in
14:17 72.3 °F 51.4 °F 30.2 in NNW 6 mph 13 mph 48 % 0 in
14:22 72.3 °F 52.2 °F 30.2 in NNW 3 mph 13 mph 49 % 0 in
14:32 73 °F 51.6 °F 30.2 in WNW 4 mph 14 mph 47 % 0 in
14:37 72.9 °F 52 °F 30.2 in WNW 2 mph 14 mph 48 % 0 in
14:42 73.4 °F 52 °F 30.2 in West 4 mph 14 mph 47 % 0 in
14:47 73.2 °F 52.3 °F 30.2 in West 7 mph 15 mph 48 % 0 in
14:52 73.4 °F 52 °F 30.2 in WNW 9 mph 15 mph 47 % 0 in
14:57 73.4 °F 52 °F 30.2 in North 5 mph 15 mph 47 % 0 in
15:02 73.6 °F 53.2 °F 30.2 in West 7 mph 11 mph 49 % 0 in
15:07 73.9 °F 53.1 °F 30.2 in WNW 7 mph 14 mph 48 % 0 in
15:12 73.6 °F 52.2 °F 30.2 in WSW 4 mph 14 mph 47 % 0 in
15:17 73.8 °F 52.9 °F 30.2 in WNW 8 mph 14 mph 48 % 0 in
15:22 73.8 °F 51.6 °F 30.2 in West 7 mph 12 mph 46 % 0 in
15:27 73.6 °F 51.4 °F 30.2 in West 8 mph 14 mph 46 % 0 in
15:32 73.9 °F 51.8 °F 30.2 in West 6 mph 14 mph 46 % 0 in
15:37 73.8 °F 51.6 °F 30.2 in NW 6 mph 14 mph 46 % 0 in
15:42 73.8 °F 51.6 °F 30.2 in WNW 3 mph 13 mph 46 % 0 in
15:47 73.6 °F 51.4 °F 30.2 in WSW 5 mph 12 mph 46 % 0 in
15:52 73.8 °F 51.6 °F 30.2 in WNW 5 mph 12 mph 46 % 0 in
16:02 73.9 °F 53.1 °F 30.2 in WSW 6 mph 12 mph 48 % 0 in
16:12 73.9 °F 51.3 °F 30.2 in West 9 mph 14 mph 45 % 0 in
16:17 74.5 °F 52.9 °F 30.2 in Calm   14 mph 47 % 0 in
16:27 74.5 °F 52.3 °F 30.2 in WNW 6 mph 14 mph 46 % 0 in
16:32 73.9 °F 53.1 °F 30.2 in NW 7 mph 14 mph 48 % 0 in
16:37 73.2 °F 51.8 °F 30.2 in WNW 5 mph 14 mph 47 % 0 in
16:42 74.1 °F 52.5 °F 30.2 in NW 5 mph 11 mph 47 % 0 in
16:52 74.1 °F 51.4 °F 30.2 in WNW 9 mph 11 mph 45 % 0 in
16:57 74.8 °F 52.2 °F 30.2 in WNW 7 mph 11 mph 45 % 0 in
17:02 74.5 °F 51.8 °F 30.2 in SSW 4 mph 14 mph 45 % 0 in
17:07 74.7 °F 52 °F 30.2 in West 3 mph 14 mph 45 % 0 in
17:12 74.1 °F 51.4 °F 30.2 in West 7 mph 16 mph 45 % 0 in
17:17 73.9 °F 51.8 °F 30.2 in WNW 6 mph 16 mph 46 % 0 in
17:22 73.8 °F 52.3 °F 30.2 in NW 4 mph 16 mph 47 % 0 in
17:32 75.6 °F 53.2 °F 30.2 in SW 5 mph 13 mph 46 % 0 in
17:42 74.7 °F 52 °F 30.2 in WNW 8 mph 12 mph 45 % 0 in
17:57 75 °F 52.9 °F 30.2 in West 3 mph 15 mph 46 % 0 in
18:02 75.2 °F 52.3 °F 30.2 in WSW 9 mph 14 mph 45 % 0 in
18:12 74.5 °F 52.3 °F 30.2 in WNW 3 mph 15 mph 46 % 0 in
18:17 74.8 °F 52.7 °F 30.2 in WNW 7 mph 15 mph 46 % 0 in
18:22 74.8 °F 52.7 °F 30.2 in West 1 mph 15 mph 46 % 0 in
18:32 74.8 °F 53.2 °F 30.2 in West 7 mph 14 mph 47 % 0 in
18:42 75.2 °F 53.6 °F 30.2 in North 2 mph 14 mph 47 % 0 in
18:52 75.6 °F 54 °F 30.2 in West 6 mph 9 mph 47 % 0 in
18:57 75 °F 52.9 °F 30.2 in WNW 9 mph 11 mph 46 % 0 in
19:02 73.9 °F 53.1 °F 30.2 in WNW 4 mph 11 mph 48 % 0 in
19:12 74.1 °F 53.2 °F 30.2 in WNW 3 mph 11 mph 48 % 0 in
19:22 73 °F 53.2 °F 30.2 in West 3 mph 10 mph 50 % 0 in
19:27 73.6 °F 53.8 °F 30.2 in Calm   10 mph 50 % 0 in
19:32 73.9 °F 53.6 °F 30.2 in NW 5 mph 10 mph 49 % 0 in
19:37 73.9 °F 53.6 °F 30.2 in WNW 3 mph 9 mph 49 % 0 in
19:42 74.1 °F 53.8 °F 30.2 in NNW 3 mph 9 mph 49 % 0 in
19:47 74.7 °F 53.6 °F 30.2 in West 2 mph 8 mph 48 % 0 in
19:57 74.5 °F 54.1 °F 30.2 in West 11 mph 11 mph 49 % 0 in
20:02 74.1 °F 53.8 °F 30.2 in WNW 6 mph 11 mph 49 % 0 in
20:12 73.6 °F 53.8 °F 30.2 in WNW 6 mph 11 mph 50 % 0 in
20:17 73 °F 53.8 °F 30.2 in WNW 4 mph 12 mph 51 % 0 in
20:22 72.7 °F 54 °F 30.2 in WSW 4 mph 12 mph 52 % 0 in
20:27 72.3 °F 54.1 °F 30.2 in WNW 4 mph 12 mph 53 % 0 in
20:32 72.3 °F 54.1 °F 30.2 in WNW 3 mph 7 mph 53 % 0 in
20:42 72.7 °F 54.5 °F 30.2 in NW 3 mph 7 mph 53 % 0 in
20:47 72.3 °F 54.7 °F 30.2 in NW 2 mph 7 mph 54 % 0 in
20:52 71.6 °F 54.5 °F 30.2 in WNW 4 mph 5 mph 55 % 0 in
20:57 71.1 °F 54.5 °F 30.2 in WNW 3 mph 6 mph 56 % 0 in
21:02 70.7 °F 54.7 °F 30.2 in NW 1 mph 7 mph 57 % 0 in
21:07 70.3 °F 54.9 °F 30.2 in WNW 3 mph 7 mph 58 % 0 in
21:12 70.2 °F 54.7 °F 30.2 in WNW 2 mph 7 mph 58 % 0 in
21:17 70 °F 55 °F 30.2 in WNW 2 mph 4 mph 59 % 0 in
21:22 69.6 °F 54.7 °F 30.2 in WNW 2 mph 5 mph 59 % 0 in
21:32 69.1 °F 54.7 °F 30.2 in WNW 4 mph 6 mph 60 % 0 in
21:42 68.5 °F 54.5 °F 30.2 in WNW 3 mph 6 mph 61 % 0 in
21:47 68.4 °F 54.9 °F 30.2 in WNW 3 mph 6 mph 62 % 0 in
21:52 68.2 °F 54.7 °F 30.2 in WNW 2 mph 5 mph 62 % 0 in
21:57 67.8 °F 54.7 °F 30.2 in WNW 2 mph 5 mph 63 % 0 in
22:02 67.6 °F 54.7 °F 30.2 in WNW 1 mph 5 mph 63 % 0 in
22:12 67.3 °F 54.7 °F 30.2 in West 2 mph 3 mph 64 % 0 in
22:17 66.9 °F 54.3 °F 30.2 in WNW 3 mph 3 mph 64 % 0 in
22:22 66.7 °F 54.7 °F 30.2 in WNW 3 mph 4 mph 65 % 0 in
22:27 66.2 °F 54.5 °F 30.2 in WNW 3 mph 4 mph 66 % 0 in
22:32 65.8 °F 54.5 °F 30.2 in WNW 3 mph 3 mph 67 % 0 in
22:37 65.7 °F 54.9 °F 30.2 in WNW 3 mph 4 mph 68 % 0 in
22:42 65.5 °F 54.7 °F 30.2 in WNW 3 mph 4 mph 68 % 0 in
22:47 65.1 °F 54.7 °F 30.2 in WNW 3 mph 4 mph 69 % 0 in
22:52 64.9 °F 54.5 °F 30.2 in West 3 mph 4 mph 69 % 0 in
22:57 64.9 °F 54.5 °F 30.2 in WNW 3 mph 4 mph 69 % 0 in
23:02 64.9 °F 54.5 °F 30.2 in WNW 3 mph 4 mph 69 % 0 in
23:12 64.6 °F 54.5 °F 30.2 in Calm   4 mph 70 % 0 in
23:17 64.2 °F 54.3 °F 30.2 in WNW 2 mph 3 mph 70 % 0 in
23:22 64 °F 54.5 °F 30.2 in Calm   3 mph 71 % 0 in
23:32 64 °F 54.5 °F 30.2 in WNW 1 mph 3 mph 71 % 0 in
23:42 63.7 °F 54.1 °F 30.2 in WNW 2 mph 3 mph 71 % 0 in
23:47 63.3 °F 54.1 °F 30.2 in WNW 3 mph 4 mph 72 % 0 in
23:52 63.1 °F 54 °F 30.2 in Calm   4 mph 72 % 0 in
23:57 63.1 °F 54 °F 30.2 in WNW 2 mph 4 mph 72 % 0 in
Meteo18
Compliments of Weather Underground - 4 mb

Script developed by  Jim McMurry - jmcmurry@mwt.net Adapted for the template by  Wim van der Kuil - Leuven-Template.eu

You find our weather info also at:

European Weather Network

Weather Underground

Equipment we use:

Weather-station
Davis Vue

Weather-program
Meteohub

Weather-server
Raspberry PI 2 B+

Provider
1 and 1

Davis Vue

Meteohub

Raspberry PI 2 B+

1 and 1